National Weather Service Raw Text Product

Displaying AFOS PIL: TAFALO Received: 2018-01-12 11:09 UTC


011 
FTUS43 KDMX 121109 AAE
TAFALO
TAF AMD
KALO 121109Z 1211/1306 34013KT P6SM SKC
     FM130300 35009KT P6SM BKN090=